ADDS METAR Data INFO
IDs: Format: Raw Decoded Include TAF

Data at: 1149 UTC 25 Jun 2018

METAR for:KJAX (Jacksonville Intl, FL, US)
Text:KJAX 251145Z 00000KT 10SM BKN019 BKN250 26/24 A3011 RMK AO2 T02560239
Temperature: 25.6°C ( 78°F)
Dewpoint: 23.9°C ( 75°F) [RH = 90%]
Pressure (altimeter):30.11 inches Hg (1019.7 mb)
Winds:calm
Visibility:10 or more sm (16+ km)
Ceiling:1900 feet AGL
Clouds: broken clouds at 1900 feet AGL, broken clouds at 25000 feet AGL

METAR for:KCRG (Jacksonville/Executi, FL, US)
Text:KCRG 251053Z 00000KT 8SM CLR 23/23 A3010 RMK AO2 SLP191 T02330233 PNO $
Temperature: 23.3°C ( 74°F)
Dewpoint: 23.3°C ( 74°F) [RH = 100%]
Pressure (altimeter):30.10 inches Hg (1019.4 mb) [Sea level pressure: 1019.1 mb]
Winds:calm
Visibility: 8 sm ( 13 km)
Ceiling:at least 12,000 feet AGL
Clouds:sky clear below 12,000 feet AGL
QC Flag:SOME DATA ABOVE MAY BE INACCURATE!!!"$" is an indication the sensor requires maintenance.

METAR for:KNIP (Jacksonville (NAS), FL, US)
Text:KNIP 251053Z 00000KT 10SM FEW250 26/22 A3009 RMK AO2 SLP186 T02610222
Temperature: 26.1°C ( 79°F)
Dewpoint: 22.2°C ( 72°F) [RH = 79%]
Pressure (altimeter):30.09 inches Hg (1019.0 mb) [Sea level pressure: 1018.6 mb]
Winds:calm
Visibility:10 or more sm (16+ km)
Ceiling:at least 12,000 feet AGL
Clouds: few clouds at 25000 feet AGL

METAR for:KNRB (Mayport (NS), FL, US)
Text:KNRB 251052Z 05009KT 10SM FEW018 SCT070 SCT250 26/24 A3009 RMK AO2 SLP189 T02610244 $
Temperature: 26.1°C ( 79°F)
Dewpoint: 24.4°C ( 76°F) [RH = 90%]
Pressure (altimeter):30.09 inches Hg (1019.0 mb) [Sea level pressure: 1018.9 mb]
Winds:from the NE (50 degrees) at 10 MPH (9 knots; 4.6 m/s)
Visibility:10 or more sm (16+ km)
Ceiling:at least 12,000 feet AGL
Clouds: few clouds at 1800 feet AGL, scattered clouds at 7000 feet AGL, scattered clouds at 25000 feet AGL
QC Flag:SOME DATA ABOVE MAY BE INACCURATE!!!"$" is an indication the sensor requires maintenance.

METAR for:KFHB (Fernandina Beach Mun, FL, US)
Text:KFHB 251135Z AUTO 00000KT 10SM CLR 27/24 A3009 RMK AO2 T02650236
Temperature: 26.5°C ( 80°F)
Dewpoint: 23.6°C ( 74°F) [RH = 84%]
Pressure (altimeter):30.09 inches Hg (1019.0 mb)
Winds:calm
Visibility:10 or more sm (16+ km)
Ceiling:at least 12,000 feet AGL
Clouds:sky clear below 12,000 feet AGL
QC Flag:automated observation with no human augmentation

METAR for:KVQQ (Jacksonville/Cecil A, FL, US)
Text:KVQQ 251035Z AUTO 00000KT 7SM CLR 22/22 A3009 RMK AO2
Temperature: 22.0°C ( 72°F)
Dewpoint: 22.0°C ( 72°F) [RH = 100%]
Pressure (altimeter):30.09 inches Hg (1019.0 mb)
Winds:calm
Visibility: 7 sm ( 11 km)
Ceiling:at least 12,000 feet AGL
Clouds:sky clear below 12,000 feet AGL
QC Flag:automated observation with no human augmentation